createdAt,value
2022-10-06T00:03:16.640Z,4.68
2022-10-06T00:08:17.448Z,4.72
2022-10-06T00:13:18.178Z,3.65
2022-10-06T00:18:20.463Z,4.30
2022-10-06T00:23:21.322Z,9.20
2022-10-06T00:28:22.232Z,2.38
2022-10-06T00:33:25.106Z,7.32
2022-10-06T00:38:26.511Z,3.00
2022-10-06T00:43:50.347Z,5.20
2022-10-06T00:48:56.823Z,3.20
2022-10-06T00:53:58.559Z,3.55
2022-10-06T00:59:00.078Z,4.93
2022-10-06T01:04:08.429Z,2.90
2022-10-06T01:09:09.255Z,3.00
2022-10-06T01:14:10.317Z,3.95
2022-10-06T01:19:21.726Z,4.13
2022-10-06T01:24:24.099Z,2.03
2022-10-06T01:29:25.921Z,4.75
2022-10-06T01:34:28.105Z,5.78
2022-10-06T01:39:30.275Z,5.40
2022-10-06T01:44:31.058Z,2.03
2022-10-06T01:49:31.900Z,2.70
2022-10-06T01:54:34.424Z,2.85
2022-10-06T01:59:35.622Z,6.97
2022-10-06T02:04:36.469Z,4.07
2022-10-06T02:09:38.706Z,4.60
2022-10-06T02:14:39.894Z,6.15
2022-10-06T02:19:40.679Z,4.05
2022-10-06T02:24:42.800Z,4.93
2022-10-06T02:29:44.721Z,7.28
2022-10-06T02:34:45.544Z,2.72
2022-10-06T02:39:47.746Z,6.03
2022-10-06T02:44:49.324Z,2.72
2022-10-06T02:49:51.586Z,5.38
2022-10-06T02:54:53.764Z,3.00
2022-10-06T02:59:54.727Z,3.92
2022-10-06T03:04:55.536Z,12.02
2022-10-06T03:09:57.784Z,4.10
2022-10-06T03:14:59.958Z,3.17
2022-10-06T03:20:00.814Z,3.97
2022-10-06T03:25:03.994Z,4.03
2022-10-06T03:30:06.573Z,3.10
2022-10-06T03:35:10.222Z,6.82
2022-10-06T03:40:13.177Z,7.43
2022-10-06T03:45:14.854Z,4.45
2022-10-06T03:50:15.985Z,4.97
2022-10-06T03:55:18.184Z,6.38
2022-10-06T04:00:19.001Z,4.97
2022-10-06T04:05:20.486Z,2.72
2022-10-06T04:10:22.863Z,7.82
2022-10-06T04:15:23.690Z,5.93
2022-10-06T04:20:24.758Z,6.15
2022-10-06T04:25:27.069Z,7.32
2022-10-06T04:30:28.913Z,8.30
2022-10-06T04:35:29.826Z,5.78
2022-10-06T04:40:32.256Z,8.05
2022-10-06T04:45:33.242Z,7.88
2022-10-06T04:50:34.284Z,3.45
2022-10-06T04:55:42.396Z,3.97
2022-10-06T05:00:43.345Z,6.55
2022-10-06T05:05:44.364Z,10.55
2022-10-06T05:10:46.571Z,6.65
2022-10-06T05:15:56.696Z,5.63
2022-10-06T05:21:01.065Z,9.63
2022-10-06T05:26:08.988Z,4.45
2022-10-06T05:31:13.217Z,4.18
2022-10-06T05:36:16.207Z,6.75
2022-10-06T05:41:21.044Z,3.45
2022-10-06T05:46:25.062Z,9.75
2022-10-06T05:51:30.866Z,5.18
2022-10-06T05:56:36.661Z,2.92
2022-10-06T06:01:40.010Z,5.50
2022-10-06T06:06:49.216Z,10.70
2022-10-06T06:11:55.452Z,6.82
2022-10-06T06:17:05.381Z,7.47
2022-10-06T06:22:06.374Z,7.18
2022-10-06T06:27:11.000Z,8.50
2022-10-06T06:32:13.506Z,4.28
2022-10-06T06:37:15.494Z,1.65
2022-10-06T06:42:20.577Z,5.80
2022-10-06T06:47:24.388Z,2.80
2022-10-06T06:52:27.019Z,3.70
2022-10-06T06:57:29.718Z,5.15
2022-10-06T07:02:32.334Z,6.38
2022-10-06T07:07:34.154Z,5.40
2022-10-06T07:12:36.580Z,4.25
2022-10-06T07:17:56.032Z,8.88
2022-10-06T07:23:14.751Z,5.43
2022-10-06T07:28:17.901Z,1.85
2022-10-06T07:33:19.002Z,6.80
2022-10-06T07:38:25.723Z,3.90
2022-10-06T07:43:29.231Z,2.78
2022-10-06T07:48:30.717Z,6.97
2022-10-06T07:53:35.584Z,6.50
2022-10-06T07:58:44.211Z,3.72
2022-10-06T08:03:48.492Z,2.03
2022-10-06T08:08:52.843Z,3.33
2022-10-06T08:13:55.415Z,5.95
2022-10-06T08:18:57.526Z,4.38
2022-10-06T08:23:59.914Z,4.60
2022-10-06T08:29:03.390Z,3.10
2022-10-06T08:34:07.605Z,6.25
2022-10-06T08:39:10.814Z,4.28
2022-10-06T08:44:30.339Z,3.20
2022-10-06T08:49:38.456Z,6.18
2022-10-06T08:54:44.056Z,5.53
2022-10-06T08:59:49.104Z,5.80
2022-10-06T09:04:51.201Z,4.63
2022-10-06T09:10:04.430Z,4.82
2022-10-06T09:15:21.095Z,1.90
2022-10-06T09:20:31.102Z,4.68
2022-10-06T09:25:32.065Z,2.67
2022-10-06T09:30:34.229Z,2.30
2022-10-06T09:35:37.092Z,4.00
2022-10-06T09:40:41.979Z,3.72
2022-10-06T09:45:44.097Z,3.63
2022-10-06T09:50:44.871Z,3.33
2022-10-06T09:55:54.617Z,5.28
2022-10-06T10:01:00.176Z,2.90
2022-10-06T10:06:02.294Z,4.43
2022-10-06T10:11:36.119Z,3.33
2022-10-06T10:16:38.334Z,2.60
2022-10-06T10:21:39.926Z,7.85
2022-10-06T10:26:48.798Z,10.50
2022-10-06T10:32:04.809Z,5.85
2022-10-06T10:37:10.087Z,8.25
2022-10-06T10:42:16.603Z,6.53
2022-10-06T10:47:25.843Z,8.18
2022-10-06T10:52:33.266Z,9.70
2022-10-06T10:57:39.940Z,5.05
2022-10-06T11:02:42.153Z,6.90
2022-10-06T11:07:50.212Z,13.35
2022-10-06T11:13:05.930Z,4.93
2022-10-06T11:18:21.312Z,4.07
2022-10-06T11:23:33.570Z,5.50
2022-10-06T11:28:43.175Z,8.10
2022-10-06T11:33:49.749Z,2.00
2022-10-06T11:38:57.550Z,6.60
2022-10-06T11:44:04.488Z,3.35
2022-10-06T11:49:43.330Z,4.82
2022-10-06T11:54:51.276Z,5.25
2022-10-06T11:59:53.878Z,15.70
2022-10-06T12:05:55.441Z,8.32
2022-10-06T12:10:51.675Z,1.23
2022-10-06T12:21:46.050Z,7.00
2022-10-06T12:26:54.699Z,5.72
2022-10-06T12:32:03.152Z,7.97
2022-10-06T12:37:34.477Z,4.55
2022-10-06T12:42:36.697Z,5.72
2022-10-06T12:47:41.705Z,7.40
2022-10-06T12:52:48.099Z,9.98
2022-10-06T12:57:53.353Z,5.07
2022-10-06T13:02:57.688Z,6.82
2022-10-06T13:08:00.085Z,11.05
2022-10-06T13:13:02.672Z,6.60
2022-10-06T13:18:13.571Z,4.32
2022-10-06T13:23:27.033Z,7.35
2022-10-06T13:28:46.599Z,7.10
2022-10-06T13:33:51.905Z,4.65
2022-10-06T13:38:53.366Z,7.18
2022-10-06T13:43:58.869Z,11.73
2022-10-06T13:49:03.367Z,10.65
2022-10-06T13:54:18.793Z,4.63
2022-10-06T13:59:35.782Z,8.02
2022-10-06T14:04:38.936Z,5.25
2022-10-06T14:09:42.063Z,4.60
2022-10-06T14:14:48.960Z,6.55
2022-10-06T14:19:50.096Z,6.82
2022-10-06T14:24:52.368Z,6.40
2022-10-06T14:29:54.670Z,6.30
2022-10-06T14:34:55.583Z,5.78
2022-10-06T14:39:56.634Z,10.93
2022-10-06T14:44:59.255Z,7.88
2022-10-06T14:50:00.461Z,2.30
2022-10-06T14:55:01.576Z,5.68
2022-10-06T15:00:05.461Z,7.88
2022-10-06T15:05:07.145Z,10.45
2022-10-06T15:10:08.858Z,5.47
2022-10-06T15:15:16.994Z,7.22
2022-10-06T15:20:17.798Z,14.18
2022-10-06T15:25:32.579Z,7.03
2022-10-06T15:30:34.714Z,7.63
2022-10-06T15:35:35.468Z,7.43
2022-10-06T15:40:36.260Z,6.45
2022-10-06T15:45:38.332Z,8.35
2022-10-06T15:50:39.489Z,3.35
2022-10-06T15:55:40.642Z,8.93
2022-10-06T16:00:44.120Z,6.53
2022-10-06T16:05:50.026Z,5.50
2022-10-06T16:10:51.197Z,6.50
2022-10-06T16:15:55.447Z,3.38
2022-10-06T16:20:56.813Z,10.68
2022-10-06T16:25:57.559Z,6.35
2022-10-06T16:30:59.737Z,9.88
2022-10-06T16:36:00.621Z,5.68
2022-10-06T16:41:02.600Z,8.52
2022-10-06T16:46:06.722Z,8.55
2022-10-06T16:51:09.095Z,12.20
2022-10-06T16:56:13.690Z,5.30
2022-10-06T17:01:17.488Z,6.63
2022-10-06T17:06:19.108Z,9.02
2022-10-06T17:11:23.683Z,9.98
2022-10-06T17:16:30.974Z,6.43
2022-10-06T17:21:45.484Z,7.50
2022-10-06T17:26:49.867Z,8.23
2022-10-06T17:31:59.919Z,8.57
2022-10-06T17:37:02.006Z,6.45
2022-10-06T17:42:03.880Z,8.13
2022-10-06T17:47:07.045Z,12.20
2022-10-06T17:52:07.817Z,7.57
2022-10-06T17:57:08.672Z,13.68
2022-10-06T18:02:13.468Z,7.47
2022-10-06T18:07:14.304Z,8.25
2022-10-06T18:12:15.102Z,11.05
2022-10-06T18:17:18.362Z,13.77
2022-10-06T18:22:19.373Z,11.30
2022-10-06T18:27:20.558Z,11.73
2022-10-06T18:37:43.766Z,11.20
2022-10-06T18:42:44.795Z,15.43
2022-10-06T18:48:04.508Z,17.15
2022-10-06T18:53:05.351Z,14.52
2022-10-06T18:58:06.391Z,15.50
2022-10-06T19:03:08.568Z,13.38
2022-10-06T19:08:09.447Z,15.05
2022-10-06T19:13:10.178Z,12.32
2022-10-06T19:18:12.315Z,11.98
2022-10-06T19:23:14.345Z,13.02
2022-10-06T19:28:15.770Z,16.13
2022-10-06T19:33:18.016Z,11.63
2022-10-06T19:38:18.884Z,15.82
2022-10-06T19:43:19.742Z,11.93
2022-10-06T19:48:21.955Z,12.15
2022-10-06T19:53:22.787Z,15.10
2022-10-06T19:58:23.582Z,17.20
2022-10-06T20:03:26.066Z,12.45
2022-10-06T20:08:27.272Z,8.40
2022-10-06T20:13:28.098Z,13.73
2022-10-06T20:18:30.356Z,12.70
2022-10-06T20:23:32.822Z,8.27
2022-10-06T20:28:34.658Z,13.02
2022-10-06T20:33:36.822Z,17.23
2022-10-06T20:38:55.020Z,13.60
2022-10-06T20:43:57.175Z,12.68
2022-10-06T20:49:05.056Z,16.35
2022-10-06T20:54:07.292Z,11.38
2022-10-06T20:59:08.861Z,14.85
2022-10-06T21:04:11.429Z,12.77
2022-10-06T21:09:14.709Z,12.40
2022-10-06T21:14:16.026Z,12.30
2022-10-06T21:19:19.983Z,11.07
2022-10-06T21:24:21.433Z,11.82
2022-10-06T21:29:22.586Z,11.77
2022-10-06T21:34:24.929Z,12.75
2022-10-06T21:39:25.859Z,16.77
2022-10-06T21:44:26.775Z,15.23
2022-10-06T21:49:29.171Z,11.23
2022-10-06T21:54:30.318Z,15.25
2022-10-06T21:59:31.341Z,11.80
2022-10-06T22:04:33.600Z,8.63
2022-10-06T22:09:39.246Z,11.30
2022-10-06T22:14:40.400Z,9.25
2022-10-06T22:19:42.645Z,15.70
2022-10-06T22:24:43.610Z,13.52
2022-10-06T22:29:44.557Z,7.50
2022-10-06T22:34:46.824Z,9.88
2022-10-06T22:39:47.706Z,14.60
2022-10-06T22:44:48.580Z,10.25
2022-10-06T22:49:50.789Z,6.20
2022-10-06T22:54:51.639Z,12.65
2022-10-06T22:59:52.732Z,12.60
2022-10-06T23:04:54.960Z,8.65
2022-10-06T23:09:55.835Z,12.50
2022-10-06T23:14:56.704Z,14.00
2022-10-06T23:19:59.001Z,9.60
2022-10-06T23:25:00.004Z,8.13
2022-10-06T23:30:00.924Z,12.98
2022-10-06T23:35:03.177Z,10.55
2022-10-06T23:40:04.679Z,12.18
2022-10-06T23:45:07.775Z,11.73
2022-10-06T23:50:10.637Z,7.63
2022-10-06T23:55:11.499Z,13.73
